sensor_id;sensor_type;location;lat;lon;timestamp;P1;durP1;ratioP1;P2;durP2;ratioP2
72926;SDS011;61071;51.618;19.388;2023-06-22T00:00:55;14.07;;;12.65;;
72926;SDS011;61071;51.618;19.388;2023-06-22T00:03:21;15.95;;;13.00;;
72926;SDS011;61071;51.618;19.388;2023-06-22T00:05:49;14.98;;;13.40;;
72926;SDS011;61071;51.618;19.388;2023-06-22T00:08:16;14.93;;;13.32;;
72926;SDS011;61071;51.618;19.388;2023-06-22T00:10:43;15.20;;;13.55;;
72926;SDS011;61071;51.618;19.388;2023-06-22T00:13:10;15.30;;;13.70;;
72926;SDS011;61071;51.618;19.388;2023-06-22T00:15:36;15.82;;;13.73;;
72926;SDS011;61071;51.618;19.388;2023-06-22T00:18:04;17.17;;;14.70;;
72926;SDS011;61071;51.618;19.388;2023-06-22T00:20:31;16.10;;;14.48;;
72926;SDS011;61071;51.618;19.388;2023-06-22T00:22:58;17.27;;;15.30;;
72926;SDS011;61071;51.618;19.388;2023-06-22T00:25:25;17.17;;;13.60;;
72926;SDS011;61071;51.618;19.388;2023-06-22T00:27:50;15.48;;;13.88;;
72926;SDS011;61071;51.618;19.388;2023-06-22T00:30:16;15.88;;;13.93;;
72926;SDS011;61071;51.618;19.388;2023-06-22T00:32:44;18.52;;;14.80;;
72926;SDS011;61071;51.618;19.388;2023-06-22T00:35:14;15.10;;;13.57;;
72926;SDS011;61071;51.618;19.388;2023-06-22T00:37:39;19.33;;;15.18;;
72926;SDS011;61071;51.618;19.388;2023-06-22T00:40:08;15.75;;;14.20;;
72926;SDS011;61071;51.618;19.388;2023-06-22T00:42:39;17.00;;;13.93;;
72926;SDS011;61071;51.618;19.388;2023-06-22T00:45:06;17.63;;;15.63;;
72926;SDS011;61071;51.618;19.388;2023-06-22T00:47:33;17.17;;;15.48;;
72926;SDS011;61071;51.618;19.388;2023-06-22T00:50:00;18.83;;;15.52;;
72926;SDS011;61071;51.618;19.388;2023-06-22T00:52:28;18.83;;;16.63;;
72926;SDS011;61071;51.618;19.388;2023-06-22T00:54:56;18.30;;;16.45;;
72926;SDS011;61071;51.618;19.388;2023-06-22T00:57:24;18.00;;;16.10;;
72926;SDS011;61071;51.618;19.388;2023-06-22T00:59:53;19.73;;;16.93;;
72926;SDS011;61071;51.618;19.388;2023-06-22T01:02:19;18.95;;;16.98;;
72926;SDS011;61071;51.618;19.388;2023-06-22T01:04:44;20.52;;;17.35;;
72926;SDS011;61071;51.618;19.388;2023-06-22T01:07:21;19.90;;;17.08;;
72926;SDS011;61071;51.618;19.388;2023-06-22T01:13:07;19.73;;;17.25;;
72926;SDS011;61071;51.618;19.388;2023-06-22T01:16:01;20.05;;;18.05;;
72926;SDS011;61071;51.618;19.388;2023-06-22T01:18:32;20.00;;;17.98;;
72926;SDS011;61071;51.618;19.388;2023-06-22T01:21:02;22.55;;;19.02;;
72926;SDS011;61071;51.618;19.388;2023-06-22T01:23:48;19.75;;;17.83;;
72926;SDS011;61071;51.618;19.388;2023-06-22T01:29:01;32.13;;;23.85;;
72926;SDS011;61071;51.618;19.388;2023-06-22T01:31:30;24.50;;;21.42;;
72926;SDS011;61071;51.618;19.388;2023-06-22T01:34:00;22.08;;;19.67;;
72926;SDS011;61071;51.618;19.388;2023-06-22T01:36:28;27.73;;;21.80;;
72926;SDS011;61071;51.618;19.388;2023-06-22T01:38:56;24.75;;;21.83;;
72926;SDS011;61071;51.618;19.388;2023-06-22T01:41:25;25.10;;;22.15;;
72926;SDS011;61071;51.618;19.388;2023-06-22T01:43:52;26.25;;;23.25;;
72926;SDS011;61071;51.618;19.388;2023-06-22T01:46:20;26.33;;;23.52;;
72926;SDS011;61071;51.618;19.388;2023-06-22T01:48:47;26.05;;;23.23;;
72926;SDS011;61071;51.618;19.388;2023-06-22T01:51:14;26.67;;;23.95;;
72926;SDS011;61071;51.618;19.388;2023-06-22T01:53:40;27.83;;;24.00;;
72926;SDS011;61071;51.618;19.388;2023-06-22T01:56:06;27.50;;;24.55;;
72926;SDS011;61071;51.618;19.388;2023-06-22T01:58:32;31.38;;;25.65;;
72926;SDS011;61071;51.618;19.388;2023-06-22T02:01:20;28.15;;;24.48;;
72926;SDS011;61071;51.618;19.388;2023-06-22T02:03:55;30.52;;;24.35;;
72926;SDS011;61071;51.618;19.388;2023-06-22T02:06:37;32.60;;;27.40;;
72926;SDS011;61071;51.618;19.388;2023-06-22T02:09:10;30.42;;;24.60;;
72926;SDS011;61071;51.618;19.388;2023-06-22T02:11:41;30.00;;;25.52;;
72926;SDS011;61071;51.618;19.388;2023-06-22T02:14:10;26.25;;;22.63;;
72926;SDS011;61071;51.618;19.388;2023-06-22T02:16:38;29.88;;;24.58;;
72926;SDS011;61071;51.618;19.388;2023-06-22T02:19:03;25.10;;;21.80;;
72926;SDS011;61071;51.618;19.388;2023-06-22T02:21:31;25.60;;;21.88;;
72926;SDS011;61071;51.618;19.388;2023-06-22T02:23:57;30.52;;;25.20;;
72926;SDS011;61071;51.618;19.388;2023-06-22T02:26:23;40.75;;;30.27;;
72926;SDS011;61071;51.618;19.388;2023-06-22T02:28:50;29.48;;;24.77;;
72926;SDS011;61071;51.618;19.388;2023-06-22T02:31:16;29.33;;;23.30;;
72926;SDS011;61071;51.618;19.388;2023-06-22T02:33:42;22.70;;;20.27;;
72926;SDS011;61071;51.618;19.388;2023-06-22T02:36:08;24.10;;;20.70;;
72926;SDS011;61071;51.618;19.388;2023-06-22T02:38:34;27.20;;;20.27;;
72926;SDS011;61071;51.618;19.388;2023-06-22T02:41:01;20.52;;;18.23;;
72926;SDS011;61071;51.618;19.388;2023-06-22T02:43:27;28.42;;;20.23;;
72926;SDS011;61071;51.618;19.388;2023-06-22T02:45:52;22.67;;;20.17;;
72926;SDS011;61071;51.618;19.388;2023-06-22T02:48:18;23.13;;;20.63;;
72926;SDS011;61071;51.618;19.388;2023-06-22T02:50:44;21.38;;;18.77;;
72926;SDS011;61071;51.618;19.388;2023-06-22T02:53:09;22.35;;;20.00;;
72926;SDS011;61071;51.618;19.388;2023-06-22T02:55:34;23.70;;;20.02;;
72926;SDS011;61071;51.618;19.388;2023-06-22T02:58:00;28.27;;;20.90;;
72926;SDS011;61071;51.618;19.388;2023-06-22T03:00:29;22.45;;;19.88;;
72926;SDS011;61071;51.618;19.388;2023-06-22T03:02:55;22.17;;;18.95;;
72926;SDS011;61071;51.618;19.388;2023-06-22T03:05:22;21.67;;;19.40;;
72926;SDS011;61071;51.618;19.388;2023-06-22T03:07:48;26.13;;;23.33;;
72926;SDS011;61071;51.618;19.388;2023-06-22T03:10:14;24.70;;;21.80;;
72926;SDS011;61071;51.618;19.388;2023-06-22T03:12:40;29.13;;;24.95;;
72926;SDS011;61071;51.618;19.388;2023-06-22T03:15:08;20.85;;;18.65;;
72926;SDS011;61071;51.618;19.388;2023-06-22T03:17:36;20.85;;;18.73;;
72926;SDS011;61071;51.618;19.388;2023-06-22T03:20:06;24.33;;;21.17;;
72926;SDS011;61071;51.618;19.388;2023-06-22T03:22:37;33.33;;;25.50;;
72926;SDS011;61071;51.618;19.388;2023-06-22T03:25:04;29.88;;;24.33;;
72926;SDS011;61071;51.618;19.388;2023-06-22T03:30:05;23.02;;;19.92;;
72926;SDS011;61071;51.618;19.388;2023-06-22T03:32:33;25.35;;;21.50;;
72926;SDS011;61071;51.618;19.388;2023-06-22T03:34:58;25.13;;;19.85;;
72926;SDS011;61071;51.618;19.388;2023-06-22T03:37:24;27.58;;;21.88;;
72926;SDS011;61071;51.618;19.388;2023-06-22T03:39:51;20.75;;;16.48;;
72926;SDS011;61071;51.618;19.388;2023-06-22T03:42:17;17.83;;;15.20;;
72926;SDS011;61071;51.618;19.388;2023-06-22T03:44:42;13.95;;;12.45;;
72926;SDS011;61071;51.618;19.388;2023-06-22T03:47:07;15.70;;;12.98;;
72926;SDS011;61071;51.618;19.388;2023-06-22T03:49:33;20.55;;;16.15;;
72926;SDS011;61071;51.618;19.388;2023-06-22T03:51:59;25.35;;;19.10;;
72926;SDS011;61071;51.618;19.388;2023-06-22T03:54:27;14.43;;;12.27;;
72926;SDS011;61071;51.618;19.388;2023-06-22T03:56:56;20.08;;;14.93;;
72926;SDS011;61071;51.618;19.388;2023-06-22T03:59:23;15.80;;;13.90;;
72926;SDS011;61071;51.618;19.388;2023-06-22T04:01:49;15.57;;;13.57;;
72926;SDS011;61071;51.618;19.388;2023-06-22T04:04:15;13.40;;;12.00;;
72926;SDS011;61071;51.618;19.388;2023-06-22T04:06:41;13.00;;;11.27;;
72926;SDS011;61071;51.618;19.388;2023-06-22T04:09:06;12.07;;;10.38;;
72926;SDS011;61071;51.618;19.388;2023-06-22T04:11:32;11.48;;;10.27;;
72926;SDS011;61071;51.618;19.388;2023-06-22T04:13:57;12.23;;;10.65;;
72926;SDS011;61071;51.618;19.388;2023-06-22T04:16:22;12.98;;;10.80;;
72926;SDS011;61071;51.618;19.388;2023-06-22T04:18:48;13.18;;;10.38;;
72926;SDS011;61071;51.618;19.388;2023-06-22T04:21:13;15.93;;;10.35;;
72926;SDS011;61071;51.618;19.388;2023-06-22T04:23:39;11.32;;;10.23;;
72926;SDS011;61071;51.618;19.388;2023-06-22T04:26:04;13.07;;;9.18;;
72926;SDS011;61071;51.618;19.388;2023-06-22T04:28:30;11.75;;;9.75;;
72926;SDS011;61071;51.618;19.388;2023-06-22T04:31:00;11.23;;;10.13;;
72926;SDS011;61071;51.618;19.388;2023-06-22T04:33:27;11.90;;;9.25;;
72926;SDS011;61071;51.618;19.388;2023-06-22T04:35:56;11.90;;;9.40;;
72926;SDS011;61071;51.618;19.388;2023-06-22T04:38:22;10.30;;;8.95;;
72926;SDS011;61071;51.618;19.388;2023-06-22T04:40:49;16.52;;;9.48;;
72926;SDS011;61071;51.618;19.388;2023-06-22T04:43:15;11.02;;;9.40;;
72926;SDS011;61071;51.618;19.388;2023-06-22T04:45:41;10.52;;;9.43;;
72926;SDS011;61071;51.618;19.388;2023-06-22T04:48:06;10.52;;;9.43;;
72926;SDS011;61071;51.618;19.388;2023-06-22T04:50:33;10.52;;;9.45;;
72926;SDS011;61071;51.618;19.388;2023-06-22T04:52:58;12.88;;;9.85;;
72926;SDS011;61071;51.618;19.388;2023-06-22T04:55:24;11.90;;;9.43;;
72926;SDS011;61071;51.618;19.388;2023-06-22T04:57:50;9.50;;;8.50;;
72926;SDS011;61071;51.618;19.388;2023-06-22T05:00:16;9.32;;;8.43;;
72926;SDS011;61071;51.618;19.388;2023-06-22T05:02:47;8.75;;;7.85;;
72926;SDS011;61071;51.618;19.388;2023-06-22T05:05:13;9.13;;;7.57;;
72926;SDS011;61071;51.618;19.388;2023-06-22T05:07:41;8.80;;;7.47;;
72926;SDS011;61071;51.618;19.388;2023-06-22T05:10:13;8.27;;;6.68;;
72926;SDS011;61071;51.618;19.388;2023-06-22T05:12:40;9.40;;;6.80;;
72926;SDS011;61071;51.618;19.388;2023-06-22T05:15:07;9.55;;;6.47;;
72926;SDS011;61071;51.618;19.388;2023-06-22T05:17:33;6.93;;;6.03;;
72926;SDS011;61071;51.618;19.388;2023-06-22T05:20:02;8.95;;;6.47;;
72926;SDS011;61071;51.618;19.388;2023-06-22T05:22:31;9.68;;;6.60;;
72926;SDS011;61071;51.618;19.388;2023-06-22T05:24:56;8.30;;;6.38;;
72926;SDS011;61071;51.618;19.388;2023-06-22T05:27:22;8.30;;;6.57;;
72926;SDS011;61071;51.618;19.388;2023-06-22T05:29:47;8.00;;;5.88;;
72926;SDS011;61071;51.618;19.388;2023-06-22T05:32:13;9.43;;;5.70;;
72926;SDS011;61071;51.618;19.388;2023-06-22T05:34:38;9.80;;;6.03;;
72926;SDS011;61071;51.618;19.388;2023-06-22T05:37:03;6.70;;;5.18;;
72926;SDS011;61071;51.618;19.388;2023-06-22T05:39:29;10.02;;;6.13;;
72926;SDS011;61071;51.618;19.388;2023-06-22T05:41:55;8.88;;;5.53;;
72926;SDS011;61071;51.618;19.388;2023-06-22T05:44:20;6.57;;;5.20;;
72926;SDS011;61071;51.618;19.388;2023-06-22T05:46:46;6.85;;;5.00;;
72926;SDS011;61071;51.618;19.388;2023-06-22T05:49:13;7.00;;;5.45;;
72926;SDS011;61071;51.618;19.388;2023-06-22T05:51:39;9.85;;;6.80;;
72926;SDS011;61071;51.618;19.388;2023-06-22T05:54:05;9.85;;;5.40;;
72926;SDS011;61071;51.618;19.388;2023-06-22T05:56:31;7.90;;;5.97;;
72926;SDS011;61071;51.618;19.388;2023-06-22T05:58:56;7.90;;;5.95;;
72926;SDS011;61071;51.618;19.388;2023-06-22T06:01:22;7.32;;;5.03;;
72926;SDS011;61071;51.618;19.388;2023-06-22T06:03:47;10.18;;;5.10;;
72926;SDS011;61071;51.618;19.388;2023-06-22T06:06:14;7.97;;;4.75;;
72926;SDS011;61071;51.618;19.388;2023-06-22T06:08:40;6.90;;;4.82;;
72926;SDS011;61071;51.618;19.388;2023-06-22T06:11:06;9.07;;;4.32;;
72926;SDS011;61071;51.618;19.388;2023-06-22T06:13:31;12.00;;;4.88;;
72926;SDS011;61071;51.618;19.388;2023-06-22T06:15:57;7.20;;;4.32;;
72926;SDS011;61071;51.618;19.388;2023-06-22T06:18:22;6.53;;;4.93;;
72926;SDS011;61071;51.618;19.388;2023-06-22T06:20:48;7.57;;;4.43;;
72926;SDS011;61071;51.618;19.388;2023-06-22T06:23:14;12.40;;;4.97;;
72926;SDS011;61071;51.618;19.388;2023-06-22T06:25:39;6.45;;;4.35;;
72926;SDS011;61071;51.618;19.388;2023-06-22T06:28:05;8.02;;;4.18;;
72926;SDS011;61071;51.618;19.388;2023-06-22T06:30:30;7.32;;;4.35;;
72926;SDS011;61071;51.618;19.388;2023-06-22T06:32:56;6.70;;;4.82;;
72926;SDS011;61071;51.618;19.388;2023-06-22T06:35:21;8.93;;;6.28;;
72926;SDS011;61071;51.618;19.388;2023-06-22T06:37:48;7.70;;;5.40;;
72926;SDS011;61071;51.618;19.388;2023-06-22T06:40:15;8.65;;;4.18;;
72926;SDS011;61071;51.618;19.388;2023-06-22T06:42:47;9.43;;;4.78;;
72926;SDS011;61071;51.618;19.388;2023-06-22T06:45:18;6.95;;;4.55;;
72926;SDS011;61071;51.618;19.388;2023-06-22T06:47:48;6.10;;;4.90;;
72926;SDS011;61071;51.618;19.388;2023-06-22T06:50:16;6.30;;;4.70;;
72926;SDS011;61071;51.618;19.388;2023-06-22T06:52:43;5.20;;;4.70;;
72926;SDS011;61071;51.618;19.388;2023-06-22T06:55:08;7.28;;;4.70;;
72926;SDS011;61071;51.618;19.388;2023-06-22T06:57:39;10.13;;;4.95;;
72926;SDS011;61071;51.618;19.388;2023-06-22T07:00:05;5.07;;;4.10;;
72926;SDS011;61071;51.618;19.388;2023-06-22T07:05:04;4.30;;;3.45;;
72926;SDS011;61071;51.618;19.388;2023-06-22T07:07:30;5.10;;;3.25;;
72926;SDS011;61071;51.618;19.388;2023-06-22T07:09:56;4.55;;;3.03;;
72926;SDS011;61071;51.618;19.388;2023-06-22T07:12:22;3.65;;;2.75;;
72926;SDS011;61071;51.618;19.388;2023-06-22T07:14:48;4.35;;;3.40;;
72926;SDS011;61071;51.618;19.388;2023-06-22T07:17:13;4.85;;;2.50;;
72926;SDS011;61071;51.618;19.388;2023-06-22T07:19:39;3.45;;;2.13;;
72926;SDS011;61071;51.618;19.388;2023-06-22T07:22:05;8.00;;;3.10;;
72926;SDS011;61071;51.618;19.388;2023-06-22T07:24:30;6.00;;;2.67;;
72926;SDS011;61071;51.618;19.388;2023-06-22T07:26:57;4.28;;;2.88;;
72926;SDS011;61071;51.618;19.388;2023-06-22T07:29:24;2.92;;;2.50;;
72926;SDS011;61071;51.618;19.388;2023-06-22T07:31:51;4.13;;;2.72;;
72926;SDS011;61071;51.618;19.388;2023-06-22T07:34:17;3.72;;;2.70;;
72926;SDS011;61071;51.618;19.388;2023-06-22T07:36:44;3.13;;;2.83;;
72926;SDS011;61071;51.618;19.388;2023-06-22T07:39:10;3.67;;;3.05;;
72926;SDS011;61071;51.618;19.388;2023-06-22T07:41:35;4.38;;;2.90;;
72926;SDS011;61071;51.618;19.388;2023-06-22T07:44:01;3.95;;;2.40;;
72926;SDS011;61071;51.618;19.388;2023-06-22T07:46:28;4.93;;;3.47;;
72926;SDS011;61071;51.618;19.388;2023-06-22T07:48:55;5.10;;;3.70;;
72926;SDS011;61071;51.618;19.388;2023-06-22T07:51:21;4.75;;;3.25;;
72926;SDS011;61071;51.618;19.388;2023-06-22T07:53:47;3.30;;;3.00;;
72926;SDS011;61071;51.618;19.388;2023-06-22T07:56:13;4.03;;;2.97;;
72926;SDS011;61071;51.618;19.388;2023-06-22T07:58:39;7.68;;;4.75;;
72926;SDS011;61071;51.618;19.388;2023-06-22T08:01:04;5.80;;;2.22;;
72926;SDS011;61071;51.618;19.388;2023-06-22T08:03:31;8.00;;;3.47;;
72926;SDS011;61071;51.618;19.388;2023-06-22T08:05:57;3.95;;;2.75;;
72926;SDS011;61071;51.618;19.388;2023-06-22T08:08:23;5.93;;;3.10;;
72926;SDS011;61071;51.618;19.388;2023-06-22T08:10:48;3.03;;;2.50;;
72926;SDS011;61071;51.618;19.388;2023-06-22T08:13:14;7.25;;;2.40;;
72926;SDS011;61071;51.618;19.388;2023-06-22T08:15:39;4.07;;;2.75;;
72926;SDS011;61071;51.618;19.388;2023-06-22T08:18:05;5.63;;;2.20;;
72926;SDS011;61071;51.618;19.388;2023-06-22T08:20:30;5.57;;;2.83;;
72926;SDS011;61071;51.618;19.388;2023-06-22T08:22:56;3.97;;;2.70;;
72926;SDS011;61071;51.618;19.388;2023-06-22T08:25:23;2.90;;;2.28;;
72926;SDS011;61071;51.618;19.388;2023-06-22T08:27:48;2.88;;;2.30;;
72926;SDS011;61071;51.618;19.388;2023-06-22T08:30:14;4.30;;;2.50;;
72926;SDS011;61071;51.618;19.388;2023-06-22T08:32:41;4.90;;;2.90;;
72926;SDS011;61071;51.618;19.388;2023-06-22T08:35:06;9.20;;;2.80;;
72926;SDS011;61071;51.618;19.388;2023-06-22T08:37:33;5.53;;;2.55;;
72926;SDS011;61071;51.618;19.388;2023-06-22T08:40:01;3.28;;;2.67;;
72926;SDS011;61071;51.618;19.388;2023-06-22T08:42:33;3.58;;;2.83;;
72926;SDS011;61071;51.618;19.388;2023-06-22T08:44:59;6.57;;;4.72;;
72926;SDS011;61071;51.618;19.388;2023-06-22T08:47:26;9.32;;;3.28;;
72926;SDS011;61071;51.618;19.388;2023-06-22T08:49:52;2.67;;;2.40;;
72926;SDS011;61071;51.618;19.388;2023-06-22T08:52:18;6.28;;;2.53;;
72926;SDS011;61071;51.618;19.388;2023-06-22T08:54:45;4.90;;;2.53;;
72926;SDS011;61071;51.618;19.388;2023-06-22T08:57:11;4.72;;;2.40;;
72926;SDS011;61071;51.618;19.388;2023-06-22T08:59:37;3.63;;;2.17;;
72926;SDS011;61071;51.618;19.388;2023-06-22T09:02:02;4.57;;;2.00;;
72926;SDS011;61071;51.618;19.388;2023-06-22T09:04:28;3.65;;;2.40;;
72926;SDS011;61071;51.618;19.388;2023-06-22T09:06:53;3.30;;;2.33;;
72926;SDS011;61071;51.618;19.388;2023-06-22T09:09:21;2.85;;;2.13;;
72926;SDS011;61071;51.618;19.388;2023-06-22T09:11:47;3.05;;;2.40;;
72926;SDS011;61071;51.618;19.388;2023-06-22T09:14:12;4.43;;;2.13;;
72926;SDS011;61071;51.618;19.388;2023-06-22T09:16:38;2.47;;;1.98;;
72926;SDS011;61071;51.618;19.388;2023-06-22T09:19:03;2.42;;;1.90;;
72926;SDS011;61071;51.618;19.388;2023-06-22T09:21:29;2.60;;;1.95;;
72926;SDS011;61071;51.618;19.388;2023-06-22T09:23:54;4.80;;;2.13;;
72926;SDS011;61071;51.618;19.388;2023-06-22T09:26:20;3.95;;;2.10;;
72926;SDS011;61071;51.618;19.388;2023-06-22T09:28:46;5.50;;;2.17;;
72926;SDS011;61071;51.618;19.388;2023-06-22T09:31:12;6.68;;;2.53;;
72926;SDS011;61071;51.618;19.388;2023-06-22T09:33:37;4.65;;;2.38;;
72926;SDS011;61071;51.618;19.388;2023-06-22T09:36:05;4.32;;;2.22;;
72926;SDS011;61071;51.618;19.388;2023-06-22T09:38:34;3.15;;;2.35;;
72926;SDS011;61071;51.618;19.388;2023-06-22T09:41:00;8.55;;;4.68;;
72926;SDS011;61071;51.618;19.388;2023-06-22T09:43:26;4.28;;;2.78;;
72926;SDS011;61071;51.618;19.388;2023-06-22T09:45:52;4.90;;;3.20;;
72926;SDS011;61071;51.618;19.388;2023-06-22T09:48:18;6.80;;;2.42;;
72926;SDS011;61071;51.618;19.388;2023-06-22T09:50:43;4.03;;;2.00;;
72926;SDS011;61071;51.618;19.388;2023-06-22T09:53:08;2.80;;;1.83;;
72926;SDS011;61071;51.618;19.388;2023-06-22T09:55:34;5.53;;;1.90;;
72926;SDS011;61071;51.618;19.388;2023-06-22T09:57:59;3.80;;;1.77;;
72926;SDS011;61071;51.618;19.388;2023-06-22T10:00:25;2.70;;;2.00;;
72926;SDS011;61071;51.618;19.388;2023-06-22T10:02:51;5.70;;;2.30;;
72926;SDS011;61071;51.618;19.388;2023-06-22T10:05:17;2.85;;;1.90;;
72926;SDS011;61071;51.618;19.388;2023-06-22T10:07:43;4.35;;;1.60;;
72926;SDS011;61071;51.618;19.388;2023-06-22T10:10:09;2.92;;;1.80;;
72926;SDS011;61071;51.618;19.388;2023-06-22T10:12:40;1.83;;;1.67;;
72926;SDS011;61071;51.618;19.388;2023-06-22T10:15:11;3.00;;;1.90;;
72926;SDS011;61071;51.618;19.388;2023-06-22T10:17:36;4.28;;;1.80;;
72926;SDS011;61071;51.618;19.388;2023-06-22T10:20:02;1.90;;;1.60;;
72926;SDS011;61071;51.618;19.388;2023-06-22T10:22:37;2.58;;;2.00;;
72926;SDS011;61071;51.618;19.388;2023-06-22T10:27:33;6.55;;;2.13;;
72926;SDS011;61071;51.618;19.388;2023-06-22T10:29:59;2.15;;;1.95;;
72926;SDS011;61071;51.618;19.388;2023-06-22T10:32:24;2.53;;;1.90;;
72926;SDS011;61071;51.618;19.388;2023-06-22T10:34:50;3.13;;;1.95;;
72926;SDS011;61071;51.618;19.388;2023-06-22T10:37:15;2.22;;;1.80;;
72926;SDS011;61071;51.618;19.388;2023-06-22T10:39:40;1.80;;;1.65;;
72926;SDS011;61071;51.618;19.388;2023-06-22T10:42:06;2.35;;;1.80;;
72926;SDS011;61071;51.618;19.388;2023-06-22T10:44:32;3.72;;;2.38;;
72926;SDS011;61071;51.618;19.388;2023-06-22T10:46:57;2.45;;;1.83;;
72926;SDS011;61071;51.618;19.388;2023-06-22T10:49:23;3.35;;;2.00;;
72926;SDS011;61071;51.618;19.388;2023-06-22T10:51:48;1.75;;;1.65;;
72926;SDS011;61071;51.618;19.388;2023-06-22T10:54:13;4.38;;;1.98;;
72926;SDS011;61071;51.618;19.388;2023-06-22T10:56:39;2.45;;;2.10;;
72926;SDS011;61071;51.618;19.388;2023-06-22T10:59:05;4.90;;;1.67;;
72926;SDS011;61071;51.618;19.388;2023-06-22T11:01:31;2.28;;;1.38;;
72926;SDS011;61071;51.618;19.388;2023-06-22T11:03:58;1.75;;;1.40;;
72926;SDS011;61071;51.618;19.388;2023-06-22T11:06:23;4.07;;;1.85;;
72926;SDS011;61071;51.618;19.388;2023-06-22T11:08:49;2.28;;;1.70;;
72926;SDS011;61071;51.618;19.388;2023-06-22T11:11:14;2.38;;;2.10;;
72926;SDS011;61071;51.618;19.388;2023-06-22T11:13:42;8.00;;;1.80;;
72926;SDS011;61071;51.618;19.388;2023-06-22T11:16:08;1.67;;;1.58;;
72926;SDS011;61071;51.618;19.388;2023-06-22T11:18:35;2.55;;;1.80;;
72926;SDS011;61071;51.618;19.388;2023-06-22T11:21:01;3.25;;;2.40;;
72926;SDS011;61071;51.618;19.388;2023-06-22T11:23:26;5.55;;;3.45;;
72926;SDS011;61071;51.618;19.388;2023-06-22T11:25:52;2.00;;;1.80;;
72926;SDS011;61071;51.618;19.388;2023-06-22T11:28:19;2.17;;;1.73;;
72926;SDS011;61071;51.618;19.388;2023-06-22T11:30:44;3.05;;;1.55;;
72926;SDS011;61071;51.618;19.388;2023-06-22T11:33:09;5.93;;;2.05;;
72926;SDS011;61071;51.618;19.388;2023-06-22T11:35:35;1.77;;;1.55;;
72926;SDS011;61071;51.618;19.388;2023-06-22T11:38:00;4.70;;;1.88;;
72926;SDS011;61071;51.618;19.388;2023-06-22T11:40:26;1.80;;;1.70;;
72926;SDS011;61071;51.618;19.388;2023-06-22T11:42:51;2.53;;;1.92;;
72926;SDS011;61071;51.618;19.388;2023-06-22T11:45:17;7.10;;;2.10;;
72926;SDS011;61071;51.618;19.388;2023-06-22T11:47:43;2.58;;;2.05;;
72926;SDS011;61071;51.618;19.388;2023-06-22T11:50:08;2.17;;;1.50;;
72926;SDS011;61071;51.618;19.388;2023-06-22T11:52:34;3.05;;;1.58;;
72926;SDS011;61071;51.618;19.388;2023-06-22T11:55:01;3.88;;;1.70;;
72926;SDS011;61071;51.618;19.388;2023-06-22T11:57:28;1.80;;;1.63;;
72926;SDS011;61071;51.618;19.388;2023-06-22T11:59:55;3.20;;;1.70;;
72926;SDS011;61071;51.618;19.388;2023-06-22T12:02:20;3.28;;;1.98;;
72926;SDS011;61071;51.618;19.388;2023-06-22T12:04:45;3.60;;;1.65;;
72926;SDS011;61071;51.618;19.388;2023-06-22T12:07:11;1.85;;;1.70;;
72926;SDS011;61071;51.618;19.388;2023-06-22T12:09:36;2.17;;;1.48;;
72926;SDS011;61071;51.618;19.388;2023-06-22T12:12:02;3.90;;;1.67;;
72926;SDS011;61071;51.618;19.388;2023-06-22T12:14:28;1.98;;;1.40;;
72926;SDS011;61071;51.618;19.388;2023-06-22T12:16:53;2.10;;;1.60;;
72926;SDS011;61071;51.618;19.388;2023-06-22T12:19:19;3.15;;;1.90;;
72926;SDS011;61071;51.618;19.388;2023-06-22T12:21:44;1.70;;;1.55;;
72926;SDS011;61071;51.618;19.388;2023-06-22T12:24:10;3.58;;;1.55;;
72926;SDS011;61071;51.618;19.388;2023-06-22T12:26:36;2.20;;;1.58;;
72926;SDS011;61071;51.618;19.388;2023-06-22T12:29:01;2.45;;;1.70;;
72926;SDS011;61071;51.618;19.388;2023-06-22T12:31:27;2.25;;;1.60;;
72926;SDS011;61071;51.618;19.388;2023-06-22T12:33:52;2.45;;;1.70;;
72926;SDS011;61071;51.618;19.388;2023-06-22T12:36:17;4.28;;;1.80;;
72926;SDS011;61071;51.618;19.388;2023-06-22T12:38:43;3.20;;;2.17;;
72926;SDS011;61071;51.618;19.388;2023-06-22T12:41:08;2.20;;;1.70;;
72926;SDS011;61071;51.618;19.388;2023-06-22T12:43:34;2.60;;;1.60;;
72926;SDS011;61071;51.618;19.388;2023-06-22T12:45:59;2.97;;;1.80;;
72926;SDS011;61071;51.618;19.388;2023-06-22T12:48:26;3.80;;;1.50;;
72926;SDS011;61071;51.618;19.388;2023-06-22T12:50:52;2.40;;;2.05;;
72926;SDS011;61071;51.618;19.388;2023-06-22T12:53:18;1.48;;;1.38;;
72926;SDS011;61071;51.618;19.388;2023-06-22T12:55:43;2.22;;;1.98;;
72926;SDS011;61071;51.618;19.388;2023-06-22T12:58:09;4.15;;;1.73;;
72926;SDS011;61071;51.618;19.388;2023-06-22T13:00:34;3.28;;;1.67;;
72926;SDS011;61071;51.618;19.388;2023-06-22T13:03:00;2.97;;;1.85;;
72926;SDS011;61071;51.618;19.388;2023-06-22T13:05:25;2.00;;;1.73;;
72926;SDS011;61071;51.618;19.388;2023-06-22T13:07:51;3.30;;;1.67;;
72926;SDS011;61071;51.618;19.388;2023-06-22T13:10:16;3.85;;;2.28;;
72926;SDS011;61071;51.618;19.388;2023-06-22T13:12:42;4.30;;;1.70;;
72926;SDS011;61071;51.618;19.388;2023-06-22T13:15:07;1.80;;;1.50;;
72926;SDS011;61071;51.618;19.388;2023-06-22T13:17:33;3.10;;;1.98;;
72926;SDS011;61071;51.618;19.388;2023-06-22T13:19:58;7.00;;;1.52;;
72926;SDS011;61071;51.618;19.388;2023-06-22T13:27:31;2.20;;;2.00;;
72926;SDS011;61071;51.618;19.388;2023-06-22T13:29:56;4.38;;;2.00;;
72926;SDS011;61071;51.618;19.388;2023-06-22T13:32:22;3.97;;;1.90;;
72926;SDS011;61071;51.618;19.388;2023-06-22T13:34:47;2.53;;;1.60;;
72926;SDS011;61071;51.618;19.388;2023-06-22T13:37:13;2.53;;;1.35;;
72926;SDS011;61071;51.618;19.388;2023-06-22T13:39:38;4.32;;;1.88;;
72926;SDS011;61071;51.618;19.388;2023-06-22T13:42:04;4.40;;;1.63;;
72926;SDS011;61071;51.618;19.388;2023-06-22T13:44:30;4.65;;;1.80;;
72926;SDS011;61071;51.618;19.388;2023-06-22T13:46:56;3.15;;;1.58;;
72926;SDS011;61071;51.618;19.388;2023-06-22T13:49:21;2.85;;;1.60;;
72926;SDS011;61071;51.618;19.388;2023-06-22T13:51:47;2.33;;;1.83;;
72926;SDS011;61071;51.618;19.388;2023-06-22T13:54:16;1.88;;;1.63;;
72926;SDS011;61071;51.618;19.388;2023-06-22T13:56:42;1.90;;;1.65;;
72926;SDS011;61071;51.618;19.388;2023-06-22T13:59:07;2.10;;;1.60;;
72926;SDS011;61071;51.618;19.388;2023-06-22T14:01:34;6.10;;;2.03;;
72926;SDS011;61071;51.618;19.388;2023-06-22T14:04:01;3.55;;;2.30;;
72926;SDS011;61071;51.618;19.388;2023-06-22T14:06:27;3.05;;;2.05;;
72926;SDS011;61071;51.618;19.388;2023-06-22T14:08:52;3.38;;;1.80;;
72926;SDS011;61071;51.618;19.388;2023-06-22T14:11:18;2.10;;;1.77;;
72926;SDS011;61071;51.618;19.388;2023-06-22T14:13:43;2.65;;;1.80;;
72926;SDS011;61071;51.618;19.388;2023-06-22T14:16:09;3.97;;;1.88;;
72926;SDS011;61071;51.618;19.388;2023-06-22T14:18:34;6.38;;;1.80;;
72926;SDS011;61071;51.618;19.388;2023-06-22T14:20:59;4.28;;;1.90;;
72926;SDS011;61071;51.618;19.388;2023-06-22T14:23:25;1.92;;;1.73;;
72926;SDS011;61071;51.618;19.388;2023-06-22T14:25:51;2.38;;;1.73;;
72926;SDS011;61071;51.618;19.388;2023-06-22T14:28:17;7.57;;;4.07;;
72926;SDS011;61071;51.618;19.388;2023-06-22T14:30:43;6.32;;;2.72;;
72926;SDS011;61071;51.618;19.388;2023-06-22T14:33:09;5.13;;;3.70;;
72926;SDS011;61071;51.618;19.388;2023-06-22T14:35:34;6.65;;;3.95;;
72926;SDS011;61071;51.618;19.388;2023-06-22T14:37:59;3.50;;;2.35;;
72926;SDS011;61071;51.618;19.388;2023-06-22T14:40:25;2.55;;;1.90;;